Iran Shahr Airport


Codes: OIZI/IHR
Name: Iran Shahr Airport
City: Iranshahr
Country: Iran
Elevation: 2040 ft.
Wikipedia:

Photos at Iran Shahr Airport


   Photos courtesy of SpottingLog. You can add your own sightings and photos by signing up for a free trial today.



No photos found.

Weather at Iran Shahr Airport


Time (UTC)DescriptionTempratureWindCloud coverageVisibilityPressureHumidity
21-Jun-2024 12:00Clear Sky41°C20 mph, NW0%10000m1000hPa10%
21-Jun-2024 15:00Clear Sky40°C18 mph, NW0%10000m999hPa10%
21-Jun-2024 18:00Clear Sky35°C11 mph, N0%10000m998hPa13%
21-Jun-2024 21:00Clear Sky33°C7 mph, NE0%10000m998hPa14%
22-Jun-2024 00:00Clear Sky31°C2 mph, NW0%10000m999hPa17%
22-Jun-2024 03:00Clear Sky34°C4 mph, E0%10000m1001hPa14%
22-Jun-2024 06:00Clear Sky40°C4 mph, NW0%10000m1000hPa9%
22-Jun-2024 09:00Clear Sky43°C18 mph, NW0%10000m997hPa6%
22-Jun-2024 12:00Clear Sky43°C20 mph, NW0%10000m996hPa6%
22-Jun-2024 15:00Clear Sky39°C16 mph, NW0%10000m997hPa8%
22-Jun-2024 18:00Clear Sky35°C9 mph, N0%10000m999hPa11%
22-Jun-2024 21:00Clear Sky33°C2 mph, E0%10000m999hPa13%
23-Jun-2024 00:00Clear Sky31°C2 mph, E0%10000m1000hPa15%
23-Jun-2024 03:00Clear Sky35°C2 mph, NE0%10000m1002hPa11%
23-Jun-2024 06:00Clear Sky39°C2 mph, SW0%10000m1001hPa9%
23-Jun-2024 09:00Clear Sky44°C11 mph, SW0%10000m998hPa7%
23-Jun-2024 12:00Clear Sky46°C20 mph, NW0%10000m995hPa6%
23-Jun-2024 15:00Clear Sky42°C18 mph, NW1%10000m996hPa9%
23-Jun-2024 18:00Clear Sky38°C9 mph, NE0%10000m999hPa10%
23-Jun-2024 21:00Clear Sky35°C4 mph, E0%10000m999hPa16%
24-Jun-2024 00:00Clear Sky32°C2 mph, NE0%10000m999hPa25%
24-Jun-2024 03:00Clear Sky35°C2 mph, E0%10000m1001hPa15%
24-Jun-2024 06:00Clear Sky42°C2 mph, NE0%10000m1000hPa9%
24-Jun-2024 09:00Clear Sky46°C11 mph, NE0%10000m997hPa6%
24-Jun-2024 12:00Clear Sky47°C18 mph, N1%10000m994hPa5%
24-Jun-2024 15:00Clear Sky42°C13 mph, NE4%10000m995hPa8%
24-Jun-2024 18:00Clear Sky37°C4 mph, NE2%10000m998hPa13%
24-Jun-2024 21:00Clear Sky35°C7 mph, E0%10000m997hPa15%
25-Jun-2024 00:00Clear Sky33°C9 mph, NE0%10000m998hPa18%
25-Jun-2024 03:00Clear Sky36°C7 mph, NE0%10000m999hPa15%
25-Jun-2024 06:00Clear Sky42°C7 mph, NW0%10000m998hPa9%
25-Jun-2024 09:00Clear Sky45°C22 mph, NW0%10000m995hPa7%
25-Jun-2024 12:00Clear Sky45°C22 mph, NW0%10000m993hPa5%
25-Jun-2024 15:00Clear Sky41°C22 mph, NW0%10000m993hPa8%
25-Jun-2024 18:00Clear Sky37°C9 mph, NE0%10000m996hPa8%
25-Jun-2024 21:00Clear Sky34°C4 mph, NE0%10000m995hPa16%
26-Jun-2024 00:00Clear Sky32°C4 mph, E0%10000m996hPa25%
26-Jun-2024 03:00Clear Sky35°C4 mph, SE0%10000m997hPa20%
26-Jun-2024 06:00Clear Sky41°C2 mph, NE0%10000m996hPa10%
26-Jun-2024 09:00Clear Sky45°C2 mph, NE0%10000m993hPa6%